createdAt,value
2023-03-17T00:02:18.960Z,21.64
2023-03-17T00:06:18.593Z,21.63
2023-03-17T00:10:18.778Z,21.63
2023-03-17T00:14:19.021Z,21.62
2023-03-17T00:18:19.202Z,21.61
2023-03-17T00:22:19.413Z,21.61
2023-03-17T00:26:19.642Z,21.60
2023-03-17T00:30:19.880Z,21.59
2023-03-17T00:34:20.070Z,21.58
2023-03-17T00:38:20.305Z,21.58
2023-03-17T00:42:20.483Z,21.58
2023-03-17T00:46:20.799Z,21.56
2023-03-17T00:50:20.907Z,21.55
2023-03-17T00:54:21.113Z,21.55
2023-03-17T00:58:21.347Z,21.55
2023-03-17T01:02:21.605Z,21.54
2023-03-17T01:06:21.774Z,21.54
2023-03-17T01:10:21.973Z,21.54
2023-03-17T01:14:22.190Z,21.53
2023-03-17T01:18:22.570Z,21.52
2023-03-17T01:22:22.357Z,21.51
2023-03-17T01:26:25.054Z,21.50
2023-03-17T01:30:22.293Z,21.50
2023-03-17T01:34:22.282Z,21.49
2023-03-17T01:38:22.241Z,21.48
2023-03-17T01:42:22.212Z,21.48
2023-03-17T01:46:22.128Z,21.47
2023-03-17T01:50:22.129Z,21.47
2023-03-17T01:54:22.146Z,21.46
2023-03-17T01:58:22.094Z,21.46
2023-03-17T02:02:22.054Z,21.45
2023-03-17T02:06:22.053Z,21.45
2023-03-17T02:10:22.016Z,21.44
2023-03-17T02:14:21.964Z,21.44
2023-03-17T02:18:21.916Z,21.43
2023-03-17T02:22:21.884Z,21.42
2023-03-17T02:26:21.850Z,21.41
2023-03-17T02:30:21.807Z,21.41
2023-03-17T02:34:21.954Z,21.40
2023-03-17T02:38:21.923Z,21.39
2023-03-17T02:42:21.885Z,21.39
2023-03-17T02:46:21.895Z,21.40
2023-03-17T02:50:21.810Z,21.39
2023-03-17T02:54:21.741Z,21.38
2023-03-17T02:58:21.748Z,21.37
2023-03-17T03:02:21.770Z,21.36
2023-03-17T03:06:21.681Z,21.36
2023-03-17T03:10:21.613Z,21.36
2023-03-17T03:14:21.566Z,21.35
2023-03-17T03:18:21.653Z,21.35
2023-03-17T03:22:21.791Z,21.34
2023-03-17T03:26:21.951Z,21.34
2023-03-17T03:30:22.176Z,21.34
2023-03-17T03:34:22.377Z,21.33
2023-03-17T03:38:22.568Z,21.32
2023-03-17T03:42:22.704Z,21.31
2023-03-17T03:46:22.882Z,21.31
2023-03-17T03:50:22.981Z,21.30
2023-03-17T03:54:23.130Z,21.31
2023-03-17T03:58:23.237Z,21.29
2023-03-17T04:02:23.417Z,21.29
2023-03-17T04:06:23.427Z,21.29
2023-03-17T04:10:23.520Z,21.29
2023-03-17T04:14:23.598Z,21.28
2023-03-17T04:18:23.696Z,21.27
2023-03-17T04:22:23.744Z,21.27
2023-03-17T04:26:23.694Z,21.26
2023-03-17T04:30:23.674Z,21.26
2023-03-17T04:34:23.681Z,21.26
2023-03-17T04:38:23.656Z,21.25
2023-03-17T04:42:23.716Z,21.24
2023-03-17T04:46:23.663Z,21.23
2023-03-17T04:50:23.630Z,21.24
2023-03-17T04:54:23.648Z,21.23
2023-03-17T04:58:30.857Z,21.22
2023-03-17T05:02:24.611Z,21.22
2023-03-17T05:06:23.580Z,21.22
2023-03-17T05:10:23.596Z,21.22
2023-03-17T05:14:23.601Z,21.21
2023-03-17T05:18:23.577Z,21.21
2023-03-17T05:22:23.557Z,21.20
2023-03-17T05:26:23.559Z,21.20
2023-03-17T05:30:23.547Z,21.20
2023-03-17T05:34:23.568Z,21.19
2023-03-17T05:38:23.515Z,21.19
2023-03-17T05:42:24.058Z,21.18
2023-03-17T05:46:23.506Z,21.18
2023-03-17T05:50:23.463Z,21.19
2023-03-17T05:54:23.446Z,21.19
2023-03-17T05:58:23.457Z,21.19
2023-03-17T06:02:23.480Z,21.19
2023-03-17T06:06:23.440Z,21.19
2023-03-17T06:10:23.425Z,21.19
2023-03-17T06:14:24.131Z,21.19
2023-03-17T06:18:23.418Z,21.20
2023-03-17T06:22:23.359Z,21.20
2023-03-17T06:26:23.332Z,21.21
2023-03-17T06:30:23.338Z,21.21
2023-03-17T06:34:23.339Z,21.22
2023-03-17T06:38:23.304Z,21.23
2023-03-17T06:42:23.566Z,21.31
2023-03-17T06:46:23.441Z,21.46
2023-03-17T06:50:23.582Z,21.54
2023-03-17T06:54:23.592Z,21.62
2023-03-17T06:58:23.611Z,21.73
2023-03-17T07:02:23.610Z,21.70
2023-03-17T07:06:23.174Z,21.62
2023-03-17T07:10:23.598Z,21.62
2023-03-17T07:14:23.127Z,21.64
2023-03-17T07:18:23.109Z,21.65
2023-03-17T07:22:23.053Z,21.70
2023-03-17T07:26:23.030Z,21.75
2023-03-17T07:30:23.122Z,21.79
2023-03-17T07:34:23.197Z,21.78
2023-03-17T07:38:23.391Z,21.73
2023-03-17T07:42:23.600Z,21.70
2023-03-17T07:46:23.656Z,21.70
2023-03-17T07:50:23.606Z,21.68
2023-03-17T07:54:24.125Z,21.72
2023-03-17T07:58:23.412Z,21.76
2023-03-17T08:02:23.679Z,21.76
2023-03-17T08:06:23.369Z,21.76
2023-03-17T08:10:23.347Z,21.82
2023-03-17T08:14:23.638Z,21.86
2023-03-17T08:18:23.276Z,21.85
2023-03-17T08:22:23.631Z,21.92
2023-03-17T08:26:23.177Z,21.98
2023-03-17T08:30:23.157Z,22.08
2023-03-17T08:34:23.104Z,22.16
2023-03-17T08:38:23.629Z,22.20
2023-03-17T08:42:23.632Z,22.21
2023-03-17T08:46:23.744Z,22.18
2023-03-17T08:50:23.230Z,22.26
2023-03-17T08:54:23.654Z,22.39
2023-03-17T08:58:23.390Z,22.52
2023-03-17T09:02:23.703Z,22.63
2023-03-17T09:06:23.305Z,22.73
2023-03-17T09:10:23.289Z,22.81
2023-03-17T09:14:24.176Z,22.89
2023-03-17T09:18:23.659Z,22.96
2023-03-17T09:22:23.158Z,23.02
2023-03-17T09:26:23.126Z,23.07
2023-03-17T09:30:23.121Z,23.13
2023-03-17T09:34:23.026Z,23.20
2023-03-17T09:38:23.175Z,23.24
2023-03-17T09:42:23.173Z,23.23
2023-03-17T09:46:23.011Z,23.04
2023-03-17T09:50:23.166Z,22.75
2023-03-17T09:54:23.139Z,22.61
2023-03-17T09:58:22.805Z,22.59
2023-03-17T10:02:22.779Z,22.60
2023-03-17T10:06:22.799Z,22.63
2023-03-17T10:10:22.897Z,22.65
2023-03-17T10:14:23.191Z,22.64
2023-03-17T10:18:22.840Z,22.65
2023-03-17T10:22:22.781Z,22.65
2023-03-17T10:26:22.756Z,22.66
2023-03-17T10:30:23.181Z,22.73
2023-03-17T10:34:22.673Z,22.78
2023-03-17T10:38:22.663Z,22.83
2023-03-17T10:42:22.706Z,22.85
2023-03-17T10:46:22.764Z,22.91
2023-03-17T10:50:22.692Z,22.95
2023-03-17T10:54:22.566Z,23.00
2023-03-17T10:58:22.645Z,23.04
2023-03-17T11:02:23.202Z,23.07
2023-03-17T11:06:22.785Z,23.09
2023-03-17T11:10:23.222Z,23.09
2023-03-17T11:14:22.913Z,23.11
2023-03-17T11:18:22.978Z,23.16
2023-03-17T11:22:23.016Z,23.23
2023-03-17T11:26:23.023Z,23.31
2023-03-17T11:30:22.982Z,23.34
2023-03-17T11:34:23.226Z,23.38
2023-03-17T11:38:23.754Z,23.37
2023-03-17T11:42:23.733Z,23.37
2023-03-17T11:46:23.585Z,23.39
2023-03-17T11:50:23.737Z,23.41
2023-03-17T11:54:24.269Z,23.42
2023-03-17T11:58:24.008Z,23.45
2023-03-17T12:02:23.935Z,23.49
2023-03-17T12:06:23.910Z,23.51
2023-03-17T12:10:23.858Z,23.52
2023-03-17T12:14:24.223Z,23.56
2023-03-17T12:18:24.702Z,23.57
2023-03-17T12:22:24.215Z,23.60
2023-03-17T12:26:23.746Z,23.56
2023-03-17T12:30:23.718Z,23.58
2023-03-17T12:34:23.727Z,23.57
2023-03-17T12:38:23.733Z,23.51
2023-03-17T12:42:23.703Z,23.46
2023-03-17T12:46:23.688Z,23.41
2023-03-17T12:50:23.633Z,23.37
2023-03-17T12:54:23.763Z,23.32
2023-03-17T12:58:25.974Z,23.26
2023-03-17T13:02:23.507Z,23.24
2023-03-17T13:06:23.434Z,23.20
2023-03-17T13:10:23.432Z,23.17
2023-03-17T13:14:23.372Z,23.15
2023-03-17T13:18:23.344Z,23.13
2023-03-17T13:22:23.334Z,23.10
2023-03-17T13:26:23.267Z,23.08
2023-03-17T13:30:23.313Z,23.06
2023-03-17T13:34:23.207Z,23.07
2023-03-17T13:38:23.161Z,23.07
2023-03-17T13:42:23.172Z,23.07
2023-03-17T13:46:23.139Z,23.08
2023-03-17T13:50:23.062Z,23.08
2023-03-17T13:54:23.038Z,23.07
2023-03-17T13:58:23.022Z,23.06
2023-03-17T14:02:22.972Z,23.05
2023-03-17T14:06:22.942Z,23.04
2023-03-17T14:10:22.901Z,23.04
2023-03-17T14:14:32.574Z,23.04
2023-03-17T14:18:23.835Z,23.04
2023-03-17T14:22:22.780Z,23.04
2023-03-17T14:26:22.716Z,23.03
2023-03-17T14:30:22.693Z,23.01
2023-03-17T14:34:22.690Z,23.00
2023-03-17T14:38:22.842Z,23.00
2023-03-17T14:42:22.954Z,22.98
2023-03-17T14:46:23.191Z,22.96
2023-03-17T14:50:23.177Z,22.94
2023-03-17T14:54:23.338Z,22.94
2023-03-17T14:58:23.445Z,22.92
2023-03-17T15:02:23.652Z,22.92
2023-03-17T15:06:23.750Z,22.91
2023-03-17T15:10:23.864Z,22.90
2023-03-17T15:14:23.953Z,22.91
2023-03-17T15:18:24.140Z,22.91
2023-03-17T15:22:24.272Z,22.90
2023-03-17T15:26:24.395Z,22.90
2023-03-17T15:30:24.771Z,22.90
2023-03-17T15:34:24.641Z,22.89
2023-03-17T15:38:24.794Z,22.89
2023-03-17T15:42:24.957Z,22.88
2023-03-17T15:46:25.072Z,22.87
2023-03-17T15:50:25.200Z,22.87
2023-03-17T15:54:25.354Z,22.87
2023-03-17T15:58:25.463Z,22.86
2023-03-17T16:02:25.641Z,22.85
2023-03-17T16:06:25.784Z,22.85
2023-03-17T16:10:25.904Z,22.85
2023-03-17T16:14:26.034Z,22.84
2023-03-17T16:18:26.177Z,22.84
2023-03-17T16:22:27.311Z,22.82
2023-03-17T16:26:26.491Z,22.82
2023-03-17T16:30:26.666Z,22.81
2023-03-17T16:34:26.798Z,22.81
2023-03-17T16:38:26.967Z,22.80
2023-03-17T16:42:27.133Z,22.79
2023-03-17T16:46:27.484Z,22.79
2023-03-17T16:50:27.514Z,22.78
2023-03-17T16:54:27.664Z,22.78
2023-03-17T16:58:27.859Z,22.77
2023-03-17T17:02:28.083Z,22.77
2023-03-17T17:06:28.208Z,22.76
2023-03-17T17:10:28.462Z,22.76
2023-03-17T17:14:28.580Z,22.75
2023-03-17T17:18:28.778Z,22.75
2023-03-17T17:22:28.911Z,22.73
2023-03-17T17:26:29.153Z,22.73
2023-03-17T17:30:29.832Z,22.73
2023-03-17T17:34:29.538Z,22.72
2023-03-17T17:38:29.774Z,22.72
2023-03-17T17:42:29.709Z,22.71
2023-03-17T17:46:29.712Z,22.71
2023-03-17T17:50:30.026Z,22.71
2023-03-17T17:54:29.587Z,22.70
2023-03-17T17:58:29.600Z,22.70
2023-03-17T18:02:29.536Z,22.69
2023-03-17T18:06:29.494Z,22.68
2023-03-17T18:10:29.498Z,22.68
2023-03-17T18:14:29.433Z,22.67
2023-03-17T18:18:29.383Z,22.67
2023-03-17T18:22:29.580Z,22.66
2023-03-17T18:26:29.565Z,22.65
2023-03-17T18:30:29.947Z,22.65
2023-03-17T18:34:29.472Z,22.64
2023-03-17T18:38:29.446Z,22.64
2023-03-17T18:42:29.383Z,22.63
2023-03-17T18:46:29.323Z,22.63
2023-03-17T18:50:29.685Z,22.62
2023-03-17T18:54:29.302Z,22.62
2023-03-17T18:58:29.314Z,22.62
2023-03-17T19:02:29.277Z,22.61
2023-03-17T19:06:29.231Z,22.61
2023-03-17T19:10:29.428Z,22.60
2023-03-17T19:14:29.198Z,22.60
2023-03-17T19:18:29.164Z,22.60
2023-03-17T19:22:29.097Z,22.59
2023-03-17T19:26:29.442Z,22.58
2023-03-17T19:30:29.238Z,22.58
2023-03-17T19:34:28.993Z,22.58
2023-03-17T19:38:29.125Z,22.57
2023-03-17T19:42:29.076Z,22.57
2023-03-17T19:46:29.072Z,22.57
2023-03-17T19:50:29.319Z,22.56
2023-03-17T19:54:28.944Z,22.55
2023-03-17T19:58:28.908Z,22.55
2023-03-17T20:02:28.871Z,22.54
2023-03-17T20:06:28.833Z,22.54
2023-03-17T20:10:29.028Z,22.53
2023-03-17T20:14:28.789Z,22.53
2023-03-17T20:18:28.909Z,22.53
2023-03-17T20:22:28.892Z,22.52
2023-03-17T20:26:28.831Z,22.52
2023-03-17T20:30:28.859Z,22.51
2023-03-17T20:34:28.757Z,22.52
2023-03-17T20:38:28.744Z,22.51
2023-03-17T20:42:28.665Z,22.50
2023-03-17T20:46:28.666Z,22.50
2023-03-17T20:50:28.600Z,22.50
2023-03-17T20:54:28.574Z,22.49
2023-03-17T20:58:28.558Z,22.49
2023-03-17T21:02:28.512Z,22.48
2023-03-17T21:06:28.633Z,22.48
2023-03-17T21:10:28.820Z,22.47
2023-03-17T21:14:28.981Z,22.47
2023-03-17T21:18:29.098Z,22.46
2023-03-17T21:22:29.260Z,22.46
2023-03-17T21:26:29.446Z,22.45
2023-03-17T21:30:29.825Z,22.44
2023-03-17T21:34:29.763Z,22.44
2023-03-17T21:38:29.884Z,22.44
2023-03-17T21:42:30.047Z,22.44
2023-03-17T21:46:30.170Z,22.43
2023-03-17T21:50:30.322Z,22.43
2023-03-17T21:54:30.378Z,22.42
2023-03-17T21:58:30.423Z,22.42
2023-03-17T22:02:30.490Z,22.41
2023-03-17T22:06:30.689Z,22.41
2023-03-17T22:10:30.975Z,22.41
2023-03-17T22:14:30.768Z,22.39
2023-03-17T22:18:30.835Z,22.39
2023-03-17T22:22:30.847Z,22.39
2023-03-17T22:26:30.856Z,22.39
2023-03-17T22:30:31.025Z,22.38
2023-03-17T22:34:30.909Z,22.38
2023-03-17T22:38:30.937Z,22.37
2023-03-17T22:42:30.899Z,22.36
2023-03-17T22:46:30.905Z,22.36
2023-03-17T22:50:31.192Z,22.35
2023-03-17T22:54:30.829Z,22.36
2023-03-17T22:58:30.834Z,22.35
2023-03-17T23:02:30.836Z,22.34
2023-03-17T23:06:30.828Z,22.34
2023-03-17T23:10:31.067Z,22.34
2023-03-17T23:14:30.765Z,22.33
2023-03-17T23:18:30.733Z,22.33
2023-03-17T23:22:30.726Z,22.31
2023-03-17T23:26:30.738Z,22.31
2023-03-17T23:30:31.242Z,22.30
2023-03-17T23:34:30.668Z,22.30
2023-03-17T23:38:30.651Z,22.29
2023-03-17T23:42:30.632Z,22.28
2023-03-17T23:46:30.731Z,22.28
2023-03-17T23:50:30.911Z,22.27
2023-03-17T23:54:30.606Z,22.27
2023-03-17T23:58:30.596Z,22.27
